Readlyn, Iowa
Current Conditions -  °F | °C
As of 10:55 PM on Saturday 22 Nov 2014 (Local Time) from KOLZ Reporting Station
Scattered Clouds Scattered Clouds  
Wind Chill: 50°   Ceiling: Unl
Heat Index: 50°   Visibility: 9mi
Dew Point: 48°   Wind: 17mph
Humidity: 94%   Direction: 180°S
Pressure: 29.66"   Gusts: NA
Location:  42.7°N, 92.23°W
Report Text: KOLZ 230455Z AUTO 18015KT 9SM FEW029 SCT040 10/09 A2966 RMK AO2
Loading
Personal Weather Stations






























Interactive Weather Map New forecast layout! Learn more

10-Day Weather Forecast

Advertisements
Track Severe Weather on mobile